createdAt,value
2022-12-16T00:00:27.380Z,87.62
2022-12-16T00:02:29.032Z,87.83
2022-12-16T00:04:30.505Z,87.96
2022-12-16T00:06:33.941Z,87.45
2022-12-16T00:08:38.374Z,87.92
2022-12-16T00:10:55.141Z,87.67
2022-12-16T00:12:56.626Z,88.00
2022-12-16T00:14:58.140Z,88.37
2022-12-16T00:16:59.590Z,88.71
2022-12-16T00:19:01.099Z,88.66
2022-12-16T00:21:03.163Z,88.46
2022-12-16T00:23:04.959Z,88.45
2022-12-16T00:25:07.032Z,88.50
2022-12-16T00:27:08.535Z,88.69
2022-12-16T00:29:11.116Z,89.01
2022-12-16T00:31:12.981Z,89.34
2022-12-16T00:33:14.445Z,89.20
2022-12-16T00:35:16.013Z,89.72
2022-12-16T00:37:17.579Z,89.30
2022-12-16T00:39:19.059Z,89.53
2022-12-16T00:41:21.000Z,89.82
2022-12-16T00:43:22.615Z,89.31
2022-12-16T00:45:24.132Z,89.49
2022-12-16T00:47:25.586Z,89.74
2022-12-16T00:49:27.107Z,89.63
2022-12-16T00:51:28.599Z,89.31
2022-12-16T00:53:30.424Z,89.84
2022-12-16T00:55:32.649Z,90.05
2022-12-16T00:57:34.250Z,90.04
2022-12-16T00:59:35.675Z,89.62
2022-12-16T01:01:37.287Z,90.09
2022-12-16T01:03:39.567Z,89.64
2022-12-16T01:05:41.283Z,89.83
2022-12-16T01:07:43.529Z,89.75
2022-12-16T01:09:44.978Z,89.95
2022-12-16T01:11:46.470Z,89.53
2022-12-16T01:13:52.103Z,90.06
2022-12-16T01:15:54.139Z,89.84
2022-12-16T01:17:55.615Z,89.81
2022-12-16T01:19:57.061Z,90.27
2022-12-16T01:21:58.541Z,89.85
2022-12-16T01:24:00.050Z,90.08
2022-12-16T01:26:02.258Z,90.22
2022-12-16T01:28:04.181Z,89.78
2022-12-16T01:30:06.333Z,90.08
2022-12-16T01:32:09.981Z,89.99
2022-12-16T01:34:11.442Z,90.33
2022-12-16T01:36:13.266Z,89.77
2022-12-16T01:38:15.605Z,90.47
2022-12-16T01:40:19.469Z,90.23
2022-12-16T01:42:22.047Z,89.99
2022-12-16T01:44:26.361Z,90.08
2022-12-16T01:46:28.063Z,89.78
2022-12-16T01:48:38.321Z,89.67
2022-12-16T01:50:39.873Z,90.31
2022-12-16T01:52:45.598Z,89.67
2022-12-16T01:55:02.242Z,90.01
2022-12-16T01:57:09.607Z,89.43
2022-12-16T01:59:16.242Z,89.49
2022-12-16T02:01:17.968Z,89.92
2022-12-16T02:03:20.102Z,89.46
2022-12-16T02:05:22.364Z,89.47
2022-12-16T02:07:25.612Z,89.51
2022-12-16T02:09:27.165Z,89.61
2022-12-16T02:11:44.784Z,89.28
2022-12-16T02:14:01.159Z,88.93
2022-12-16T02:16:18.683Z,89.04
2022-12-16T02:18:33.657Z,89.07
2022-12-16T02:20:44.848Z,89.11
2022-12-16T02:23:12.772Z,88.52
2022-12-16T02:25:50.907Z,88.35
2022-12-16T02:27:55.906Z,88.69
2022-12-16T02:30:26.751Z,88.54
2022-12-16T02:32:49.704Z,88.53
2022-12-16T02:35:04.038Z,88.52
2022-12-16T02:37:30.641Z,87.97
2022-12-16T02:39:37.323Z,87.84
2022-12-16T02:41:47.838Z,87.95
2022-12-16T02:43:57.746Z,86.91
2022-12-16T02:45:59.752Z,87.40
2022-12-16T02:48:01.337Z,87.54
2022-12-16T02:50:02.907Z,87.46
2022-12-16T02:52:04.410Z,87.76
2022-12-16T02:54:09.420Z,87.23
2022-12-16T02:56:18.486Z,87.07
2022-12-16T02:58:23.425Z,87.55
2022-12-16T03:00:26.363Z,87.36
2022-12-16T03:02:57.176Z,86.73
2022-12-16T03:05:06.449Z,87.46
2022-12-16T03:07:12.165Z,86.86
2022-12-16T03:09:21.254Z,86.58
2022-12-16T03:11:25.570Z,86.88
2022-12-16T03:13:33.064Z,86.72
2022-12-16T03:15:36.028Z,86.06
2022-12-16T03:17:39.483Z,86.91
2022-12-16T03:19:46.086Z,86.76
2022-12-16T03:22:09.141Z,86.63
2022-12-16T03:24:13.966Z,86.19
2022-12-16T03:26:30.465Z,85.63
2022-12-16T03:28:58.823Z,86.30
2022-12-16T03:31:12.349Z,86.53
2022-12-16T03:33:24.766Z,86.31
2022-12-16T03:35:35.875Z,85.59
2022-12-16T03:37:38.694Z,85.61
2022-12-16T03:39:47.733Z,85.99
2022-12-16T03:41:54.368Z,85.37
2022-12-16T03:43:56.322Z,86.03
2022-12-16T03:46:04.250Z,85.80
2022-12-16T03:48:11.214Z,85.77
2022-12-16T03:50:12.669Z,85.09
2022-12-16T03:52:14.092Z,86.06
2022-12-16T03:54:15.637Z,85.66
2022-12-16T03:56:17.918Z,85.76
2022-12-16T03:58:19.502Z,85.63
2022-12-16T04:00:21.493Z,85.46
2022-12-16T04:02:23.130Z,85.07
2022-12-16T04:04:24.891Z,85.10
2022-12-16T04:06:26.437Z,85.71
2022-12-16T04:08:28.025Z,85.72
2022-12-16T04:10:48.572Z,84.89
2022-12-16T04:13:08.430Z,85.16
2022-12-16T04:15:29.080Z,85.38
2022-12-16T04:17:48.730Z,86.03
2022-12-16T04:20:09.448Z,86.15
2022-12-16T04:22:36.401Z,85.54
2022-12-16T04:24:38.268Z,85.69
2022-12-16T04:26:58.209Z,85.36
2022-12-16T04:28:59.652Z,84.79
2022-12-16T04:31:01.295Z,84.84
2022-12-16T04:33:25.014Z,85.82
2022-12-16T04:35:45.307Z,84.99
2022-12-16T04:38:05.222Z,85.31
2022-12-16T04:40:25.973Z,85.23
2022-12-16T04:42:45.703Z,84.06
2022-12-16T04:45:05.918Z,84.31
2022-12-16T04:47:25.676Z,84.46
2022-12-16T04:49:46.086Z,84.92
2022-12-16T04:52:05.898Z,85.08
2022-12-16T04:54:25.859Z,85.00
2022-12-16T04:56:45.711Z,84.83
2022-12-16T04:59:05.575Z,85.21
2022-12-16T05:01:25.815Z,84.69
2022-12-16T05:03:46.371Z,85.43
2022-12-16T05:06:06.627Z,84.93
2022-12-16T05:08:26.399Z,85.30
2022-12-16T05:10:46.388Z,84.77
2022-12-16T05:13:06.370Z,85.07
2022-12-16T05:15:26.719Z,84.79
2022-12-16T05:17:46.611Z,85.36
2022-12-16T05:20:07.041Z,85.36
2022-12-16T05:22:26.985Z,85.59
2022-12-16T05:24:52.584Z,85.02
2022-12-16T05:27:12.801Z,84.86
2022-12-16T05:29:32.818Z,85.72
2022-12-16T05:31:52.642Z,85.71
2022-12-16T05:34:12.789Z,84.95
2022-12-16T05:36:32.495Z,84.68
2022-12-16T05:38:52.608Z,84.32
2022-12-16T05:41:12.602Z,84.60
2022-12-16T05:43:33.157Z,84.81
2022-12-16T05:45:53.854Z,84.60
2022-12-16T05:48:13.734Z,84.72
2022-12-16T05:50:34.175Z,85.11
2022-12-16T05:52:54.359Z,84.51
2022-12-16T05:55:14.134Z,85.12
2022-12-16T05:57:33.967Z,84.38
2022-12-16T05:59:53.831Z,84.50
2022-12-16T06:02:13.628Z,85.19
2022-12-16T06:04:41.360Z,85.63
2022-12-16T06:07:01.256Z,85.50
2022-12-16T06:09:22.129Z,85.84
2022-12-16T06:11:41.974Z,86.14
2022-12-16T06:14:01.879Z,85.86
2022-12-16T06:16:21.680Z,86.51
2022-12-16T06:18:41.492Z,85.99
2022-12-16T06:21:02.495Z,86.34
2022-12-16T06:23:25.538Z,86.72
2022-12-16T06:25:45.838Z,86.45
2022-12-16T06:28:10.871Z,86.35
2022-12-16T06:30:31.247Z,87.13
2022-12-16T06:32:51.098Z,87.17
2022-12-16T06:35:11.041Z,86.74
2022-12-16T06:37:31.336Z,86.53
2022-12-16T06:39:53.047Z,86.48
2022-12-16T06:42:13.167Z,86.19
2022-12-16T06:44:32.985Z,86.39
2022-12-16T06:46:52.871Z,86.04
2022-12-16T06:49:12.741Z,85.82
2022-12-16T06:51:32.692Z,86.09
2022-12-16T06:53:52.622Z,85.74
2022-12-16T06:56:12.505Z,86.27
2022-12-16T06:58:32.970Z,85.59
2022-12-16T07:00:52.800Z,86.51
2022-12-16T07:03:12.824Z,86.35
2022-12-16T07:05:32.944Z,86.07
2022-12-16T07:07:52.705Z,85.41
2022-12-16T07:10:12.534Z,85.60
2022-12-16T07:12:32.322Z,85.81
2022-12-16T07:14:52.231Z,85.81
2022-12-16T07:17:17.067Z,85.97
2022-12-16T07:19:37.735Z,85.47
2022-12-16T07:21:57.708Z,86.19
2022-12-16T07:24:17.833Z,85.82
2022-12-16T07:26:37.691Z,85.51
2022-12-16T07:28:57.793Z,85.75
2022-12-16T07:31:18.194Z,85.02
2022-12-16T07:33:38.444Z,85.26
2022-12-16T07:36:01.328Z,85.39
2022-12-16T07:38:21.270Z,85.54
2022-12-16T07:40:41.446Z,85.65
2022-12-16T07:43:04.336Z,84.86
2022-12-16T07:45:25.096Z,85.11
2022-12-16T07:47:45.044Z,85.73
2022-12-16T07:50:04.958Z,85.52
2022-12-16T07:52:24.722Z,85.27
2022-12-16T07:54:45.103Z,84.17
2022-12-16T07:57:04.865Z,84.40
2022-12-16T07:59:24.585Z,84.21
2022-12-16T08:01:44.634Z,84.53
2022-12-16T08:04:05.544Z,84.42
2022-12-16T08:06:25.519Z,84.99
2022-12-16T08:08:45.342Z,84.88
2022-12-16T08:11:05.149Z,85.71
2022-12-16T08:13:32.364Z,85.58
2022-12-16T08:15:52.421Z,86.23
2022-12-16T08:18:12.764Z,86.71
2022-12-16T08:20:33.131Z,86.90
2022-12-16T08:22:52.875Z,87.80
2022-12-16T08:25:15.183Z,87.53
2022-12-16T08:27:35.103Z,87.86
2022-12-16T08:29:55.516Z,88.40
2022-12-16T08:32:15.307Z,89.31
2022-12-16T08:34:35.015Z,89.66
2022-12-16T08:36:54.735Z,90.78
2022-12-16T08:39:15.466Z,90.64
2022-12-16T08:41:35.248Z,91.24
2022-12-16T08:43:55.031Z,90.68
2022-12-16T08:46:15.313Z,91.18
2022-12-16T08:48:35.351Z,91.54
2022-12-16T08:51:14.986Z,91.63
2022-12-16T08:53:35.358Z,91.33
2022-12-16T08:55:56.068Z,91.32
2022-12-16T08:58:16.024Z,91.47
2022-12-16T09:00:36.380Z,91.20
2022-12-16T09:02:56.289Z,91.15
2022-12-16T09:05:16.388Z,91.24
2022-12-16T09:07:37.254Z,91.67
2022-12-16T09:09:56.982Z,91.25
2022-12-16T09:12:16.763Z,91.57
2022-12-16T09:14:36.987Z,91.48
2022-12-16T09:16:56.819Z,91.38
2022-12-16T09:19:16.856Z,91.43
2022-12-16T09:21:36.893Z,91.60
2022-12-16T09:23:56.605Z,91.70
2022-12-16T09:26:16.524Z,91.41
2022-12-16T09:28:36.793Z,91.08
2022-12-16T09:30:56.712Z,91.30
2022-12-16T09:33:16.668Z,91.25
2022-12-16T09:35:36.512Z,91.49
2022-12-16T09:37:56.382Z,91.55
2022-12-16T09:40:16.137Z,91.73
2022-12-16T09:43:01.057Z,91.56
2022-12-16T09:46:09.573Z,91.18
2022-12-16T09:48:41.748Z,91.41
2022-12-16T09:51:03.046Z,91.49
2022-12-16T09:53:28.887Z,91.63
2022-12-16T09:55:54.316Z,91.54
2022-12-16T09:58:14.194Z,91.61
2022-12-16T10:00:41.018Z,91.74
2022-12-16T10:03:06.743Z,91.71
2022-12-16T10:05:33.734Z,91.54
2022-12-16T10:07:58.992Z,92.16
2022-12-16T10:10:36.069Z,92.13
2022-12-16T10:13:23.346Z,92.36
2022-12-16T10:16:00.168Z,91.94
2022-12-16T10:18:31.962Z,91.53
2022-12-16T10:21:07.868Z,91.78
2022-12-16T10:23:44.547Z,91.53
2022-12-16T10:26:26.986Z,91.35
2022-12-16T10:29:06.207Z,90.46
2022-12-16T10:31:34.936Z,90.11
2022-12-16T10:33:55.536Z,90.07
2022-12-16T10:36:16.324Z,90.09
2022-12-16T10:38:44.109Z,89.82
2022-12-16T10:41:04.972Z,89.57
2022-12-16T10:43:33.758Z,89.43
2022-12-16T10:46:02.919Z,89.07
2022-12-16T10:48:23.106Z,88.53
2022-12-16T10:50:42.780Z,88.17
2022-12-16T10:53:15.697Z,88.38
2022-12-16T10:55:53.871Z,88.10
2022-12-16T10:58:41.079Z,89.49
2022-12-16T11:01:05.540Z,91.91
2022-12-16T11:03:52.952Z,88.44
2022-12-16T11:06:19.570Z,82.86
2022-12-16T11:08:51.971Z,79.01
2022-12-16T11:11:12.697Z,77.75
2022-12-16T11:13:40.812Z,77.26
2022-12-16T11:16:02.168Z,77.04
2022-12-16T11:18:27.901Z,77.33
2022-12-16T11:20:47.864Z,76.02
2022-12-16T11:23:26.790Z,75.86
2022-12-16T11:25:47.205Z,76.39
2022-12-16T11:28:06.923Z,76.81
2022-12-16T11:30:42.591Z,76.83
2022-12-16T11:33:16.089Z,77.64
2022-12-16T11:35:38.134Z,77.67
2022-12-16T11:38:01.561Z,78.26
2022-12-16T11:40:21.930Z,78.57
2022-12-16T11:42:47.196Z,79.44
2022-12-16T11:45:15.996Z,79.46
2022-12-16T11:47:51.146Z,79.53
2022-12-16T11:50:23.486Z,79.58
2022-12-16T11:52:44.163Z,79.69
2022-12-16T11:56:02.901Z,80.40
2022-12-16T11:58:24.111Z,80.32
2022-12-16T12:00:44.162Z,80.43
2022-12-16T12:03:23.553Z,81.03
2022-12-16T12:05:56.773Z,81.29
2022-12-16T12:08:23.235Z,81.42
2022-12-16T12:11:02.016Z,81.30
2022-12-16T12:13:46.023Z,81.14
2022-12-16T12:16:23.383Z,80.93
2022-12-16T12:19:09.439Z,80.46
2022-12-16T12:21:35.347Z,80.27
2022-12-16T12:24:20.157Z,78.27
2022-12-16T12:26:48.984Z,78.40
2022-12-16T12:29:24.227Z,79.52
2022-12-16T12:31:44.333Z,78.69
2022-12-16T12:34:33.422Z,79.76
2022-12-16T12:37:16.030Z,80.26
2022-12-16T12:40:08.759Z,79.61
2022-12-16T12:43:08.144Z,79.96
2022-12-16T12:46:05.814Z,80.38
2022-12-16T12:48:45.115Z,80.56
2022-12-16T12:51:16.545Z,81.01
2022-12-16T12:53:45.199Z,80.46
2022-12-16T12:56:08.543Z,80.77
2022-12-16T12:58:31.200Z,81.20
2022-12-16T13:00:58.022Z,80.78
2022-12-16T13:03:48.744Z,81.54
2022-12-16T13:06:09.775Z,80.82
2022-12-16T13:09:00.080Z,80.64
2022-12-16T13:11:35.429Z,81.16
2022-12-16T13:13:55.862Z,80.75
2022-12-16T13:16:15.624Z,81.03
2022-12-16T13:18:39.778Z,81.24
2022-12-16T13:20:59.591Z,80.92
2022-12-16T13:23:55.988Z,81.22
2022-12-16T13:26:23.915Z,81.16
2022-12-16T13:28:59.045Z,81.23
2022-12-16T13:31:25.789Z,81.50
2022-12-16T13:33:48.703Z,81.72
2022-12-16T13:36:17.115Z,81.45
2022-12-16T13:38:36.993Z,81.14
2022-12-16T13:41:18.676Z,81.33
2022-12-16T13:44:13.939Z,82.00
2022-12-16T13:46:36.029Z,82.08
2022-12-16T13:49:13.642Z,81.67
2022-12-16T13:51:55.434Z,81.86
2022-12-16T13:54:18.237Z,81.41
2022-12-16T13:56:51.588Z,81.86
2022-12-16T13:59:19.088Z,82.09
2022-12-16T14:02:04.641Z,82.05
2022-12-16T14:04:28.735Z,82.08
2022-12-16T14:06:50.422Z,82.16
2022-12-16T14:09:10.670Z,82.48
2022-12-16T14:11:55.481Z,82.41
2022-12-16T14:14:44.881Z,82.04
2022-12-16T14:17:14.028Z,82.44
2022-12-16T14:19:55.990Z,82.59
2022-12-16T14:22:31.151Z,82.55
2022-12-16T14:24:51.567Z,82.39
2022-12-16T14:27:12.075Z,82.30
2022-12-16T14:29:45.517Z,82.54
2022-12-16T14:32:05.304Z,81.30
2022-12-16T14:34:33.998Z,80.31
2022-12-16T14:36:57.345Z,79.77
2022-12-16T14:39:17.705Z,79.92
2022-12-16T14:41:42.516Z,79.98
2022-12-16T14:44:02.775Z,80.48
2022-12-16T14:46:23.704Z,81.33
2022-12-16T14:48:56.094Z,81.93
2022-12-16T14:51:15.985Z,82.68
2022-12-16T14:53:42.225Z,83.54
2022-12-16T14:56:02.006Z,84.42
2022-12-16T14:58:32.569Z,84.78
2022-12-16T15:00:53.828Z,85.22
2022-12-16T15:03:25.464Z,85.31
2022-12-16T15:05:50.894Z,85.28
2022-12-16T15:08:13.717Z,85.35
2022-12-16T15:10:34.148Z,85.38
2022-12-16T15:12:58.655Z,85.37
2022-12-16T15:15:22.629Z,85.32
2022-12-16T15:18:06.749Z,85.32
2022-12-16T15:20:38.861Z,85.09
2022-12-16T15:23:05.197Z,84.99
2022-12-16T15:25:26.125Z,84.94
2022-12-16T15:27:54.072Z,84.76
2022-12-16T15:30:13.865Z,85.34
2022-12-16T15:32:45.912Z,85.02
2022-12-16T15:35:07.850Z,85.25
2022-12-16T15:37:40.206Z,84.66
2022-12-16T15:40:00.554Z,84.95
2022-12-16T15:42:20.713Z,84.66
2022-12-16T15:44:41.982Z,84.59
2022-12-16T15:47:06.786Z,84.64
2022-12-16T15:49:47.607Z,85.10
2022-12-16T15:52:08.544Z,84.83
2022-12-16T15:54:35.028Z,84.80
2022-12-16T15:57:03.775Z,84.31
2022-12-16T15:59:41.015Z,84.77
2022-12-16T16:02:05.110Z,84.84
2022-12-16T16:04:46.167Z,84.45
2022-12-16T16:07:08.482Z,84.29
2022-12-16T16:09:32.928Z,84.02
2022-12-16T16:11:52.816Z,84.65
2022-12-16T16:14:14.502Z,83.72
2022-12-16T16:16:43.293Z,84.58
2022-12-16T16:19:03.227Z,83.84
2022-12-16T16:21:23.015Z,84.02
2022-12-16T16:23:42.895Z,84.21
2022-12-16T16:26:04.844Z,84.10
2022-12-16T16:28:27.106Z,83.90
2022-12-16T16:30:47.428Z,84.03
2022-12-16T16:33:07.657Z,84.44
2022-12-16T16:35:27.456Z,84.23
2022-12-16T16:37:47.356Z,84.44
2022-12-16T16:40:07.208Z,83.89
2022-12-16T16:42:29.133Z,83.85
2022-12-16T16:44:49.605Z,84.05
2022-12-16T16:47:09.950Z,84.33
2022-12-16T16:49:56.538Z,84.33
2022-12-16T16:52:16.708Z,84.26
2022-12-16T16:54:36.619Z,84.39
2022-12-16T16:56:57.048Z,84.06
2022-12-16T16:59:16.919Z,83.97
2022-12-16T17:01:38.042Z,84.37
2022-12-16T17:03:58.480Z,84.26
2022-12-16T17:06:18.602Z,83.62
2022-12-16T17:08:38.530Z,84.03
2022-12-16T17:11:02.841Z,84.36
2022-12-16T17:13:22.630Z,83.76
2022-12-16T17:15:48.130Z,83.77
2022-12-16T17:18:08.281Z,84.11
2022-12-16T17:20:33.072Z,84.25
2022-12-16T17:22:53.304Z,84.53
2022-12-16T17:25:13.075Z,83.93
2022-12-16T17:27:35.903Z,84.04
2022-12-16T17:29:55.702Z,83.51
2022-12-16T17:32:15.510Z,83.77
2022-12-16T17:34:35.327Z,83.44
2022-12-16T17:36:55.340Z,83.45
2022-12-16T17:39:15.538Z,83.55
2022-12-16T17:41:35.248Z,83.92
2022-12-16T17:43:55.654Z,84.15
2022-12-16T17:46:25.127Z,84.22
2022-12-16T17:48:45.769Z,84.30
2022-12-16T17:51:06.378Z,84.34
2022-12-16T17:53:26.526Z,84.78
2022-12-16T17:55:46.913Z,84.64
2022-12-16T17:58:06.809Z,84.60
2022-12-16T18:00:27.737Z,84.60
2022-12-16T18:02:47.802Z,84.29
2022-12-16T18:05:07.868Z,83.77
2022-12-16T18:07:27.642Z,84.06
2022-12-16T18:09:47.860Z,84.45
2022-12-16T18:12:07.813Z,84.49
2022-12-16T18:14:27.880Z,83.78
2022-12-16T18:16:47.753Z,83.95
2022-12-16T18:19:09.352Z,83.93
2022-12-16T18:21:31.657Z,84.09
2022-12-16T18:23:51.796Z,84.29
2022-12-16T18:26:23.848Z,83.74
2022-12-16T18:28:43.909Z,83.74
2022-12-16T18:31:04.190Z,84.07
2022-12-16T18:33:24.607Z,84.14
2022-12-16T18:35:44.460Z,84.23
2022-12-16T18:38:04.448Z,84.14
2022-12-16T18:40:25.135Z,84.45
2022-12-16T18:42:45.209Z,84.37
2022-12-16T18:45:08.153Z,84.91
2022-12-16T18:47:28.204Z,85.19
2022-12-16T18:49:47.922Z,84.98
2022-12-16T18:52:08.035Z,86.18
2022-12-16T18:54:27.817Z,87.17
2022-12-16T18:56:48.125Z,87.72
2022-12-16T18:59:08.032Z,88.01
2022-12-16T19:01:29.971Z,88.06
2022-12-16T19:03:49.782Z,87.73
2022-12-16T19:06:13.710Z,89.20
2022-12-16T19:08:34.047Z,88.80
2022-12-16T19:10:53.983Z,89.33
2022-12-16T19:13:14.995Z,89.54
2022-12-16T19:15:39.508Z,89.62
2022-12-16T19:18:20.749Z,90.07
2022-12-16T19:20:40.992Z,89.34
2022-12-16T19:23:00.946Z,89.54
2022-12-16T19:25:20.963Z,89.91
2022-12-16T19:27:41.161Z,89.81
2022-12-16T19:30:00.998Z,88.55
2022-12-16T19:32:21.064Z,89.12
2022-12-16T19:34:40.929Z,89.32
2022-12-16T19:37:01.159Z,89.08
2022-12-16T19:39:20.938Z,89.61
2022-12-16T19:41:40.644Z,89.99
2022-12-16T19:46:40.769Z,90.56
2022-12-16T19:49:00.744Z,90.88
2022-12-16T19:51:21.036Z,91.04
2022-12-16T19:53:40.968Z,91.00
2022-12-16T19:56:00.802Z,90.98
2022-12-16T19:58:20.986Z,90.95
2022-12-16T20:00:40.609Z,91.21
2022-12-16T20:03:00.732Z,91.63
2022-12-16T20:05:20.926Z,91.39
2022-12-16T20:07:40.637Z,91.36
2022-12-16T20:10:00.526Z,91.10
2022-12-16T20:12:20.374Z,91.31
2022-12-16T20:14:40.716Z,91.61
2022-12-16T20:17:01.570Z,91.95
2022-12-16T20:19:21.643Z,91.87
2022-12-16T20:21:47.677Z,91.85
2022-12-16T20:24:08.843Z,92.17
2022-12-16T20:26:29.193Z,91.89
2022-12-16T20:28:49.165Z,91.40
2022-12-16T20:31:09.519Z,92.13
2022-12-16T20:33:33.929Z,91.73
2022-12-16T20:35:56.066Z,91.70
2022-12-16T20:38:16.499Z,92.26
2022-12-16T20:40:36.477Z,92.42
2022-12-16T20:42:56.511Z,92.49
2022-12-16T20:45:16.311Z,91.99
2022-12-16T20:47:36.642Z,92.29
2022-12-16T20:49:56.781Z,92.68
2022-12-16T20:52:16.928Z,92.20
2022-12-16T20:54:37.046Z,92.12
2022-12-16T20:56:56.963Z,92.50
2022-12-16T20:59:17.062Z,92.39
2022-12-16T21:01:36.896Z,92.47
2022-12-16T21:03:57.203Z,92.18
2022-12-16T21:06:16.884Z,92.52
2022-12-16T21:08:36.902Z,91.63
2022-12-16T21:10:57.086Z,92.22
2022-12-16T21:13:27.782Z,92.10
2022-12-16T21:15:47.586Z,92.28
2022-12-16T21:18:07.694Z,91.67
2022-12-16T21:20:28.103Z,91.79
2022-12-16T21:22:48.061Z,91.45
2022-12-16T21:25:08.260Z,92.19
2022-12-16T21:27:28.799Z,91.85
2022-12-16T21:29:48.613Z,91.72
2022-12-16T21:32:08.974Z,92.05
2022-12-16T21:34:29.517Z,92.22
2022-12-16T21:36:49.287Z,91.89
2022-12-16T21:39:09.332Z,92.29
2022-12-16T21:41:29.048Z,92.29
2022-12-16T21:43:48.768Z,92.48
2022-12-16T21:46:12.534Z,92.40
2022-12-16T21:48:32.391Z,92.58
2022-12-16T21:50:52.151Z,91.94
2022-12-16T21:53:11.926Z,91.78
2022-12-16T21:55:32.186Z,92.39
2022-12-16T21:57:53.280Z,92.23
2022-12-16T22:00:13.643Z,92.03
2022-12-16T22:02:33.758Z,91.94
2022-12-16T22:04:53.919Z,92.01
2022-12-16T22:07:13.672Z,92.15
2022-12-16T22:09:34.071Z,92.27
2022-12-16T22:11:53.796Z,92.28
2022-12-16T22:14:16.548Z,92.67
2022-12-16T22:16:36.185Z,92.19
2022-12-16T22:18:56.065Z,92.18
2022-12-16T22:21:22.279Z,92.55
2022-12-16T22:23:47.224Z,92.09
2022-12-16T22:26:13.415Z,91.77
2022-12-16T22:28:33.217Z,91.92
2022-12-16T22:30:52.904Z,91.69
2022-12-16T22:33:16.040Z,92.01
2022-12-16T22:35:35.791Z,91.58
2022-12-16T22:37:56.182Z,91.04
2022-12-16T22:40:16.218Z,91.69
2022-12-16T22:42:36.028Z,91.24
2022-12-16T22:44:56.628Z,90.74
2022-12-16T22:47:16.501Z,90.70
2022-12-16T22:49:36.399Z,90.63
2022-12-16T22:51:56.880Z,91.01
2022-12-16T22:54:17.043Z,91.09
2022-12-16T22:56:36.813Z,90.27
2022-12-16T22:58:57.753Z,89.54
2022-12-16T23:01:17.592Z,89.17
2022-12-16T23:03:37.657Z,89.33
2022-12-16T23:05:58.042Z,89.81
2022-12-16T23:08:18.051Z,89.09
2022-12-16T23:10:37.925Z,89.40
2022-12-16T23:12:57.859Z,89.80
2022-12-16T23:15:17.734Z,89.52
2022-12-16T23:17:38.070Z,89.54
2022-12-16T23:20:02.472Z,88.57
2022-12-16T23:22:22.528Z,88.73
2022-12-16T23:24:42.544Z,89.23
2022-12-16T23:27:03.014Z,88.91
2022-12-16T23:29:23.364Z,88.69
2022-12-16T23:31:43.374Z,88.36
2022-12-16T23:34:03.501Z,87.97
2022-12-16T23:36:23.993Z,88.19
2022-12-16T23:38:44.028Z,88.09
2022-12-16T23:41:03.926Z,87.87
2022-12-16T23:43:23.702Z,87.11
2022-12-16T23:45:43.661Z,87.40
2022-12-16T23:48:03.387Z,87.00
2022-12-16T23:50:23.714Z,87.32
2022-12-16T23:52:43.374Z,87.32
2022-12-16T23:55:03.177Z,87.31
2022-12-16T23:57:22.814Z,87.25
2022-12-16T23:59:42.515Z,86.93
